sensor_id;sensor_type;location;lat;lon;timestamp;pressure;altitude;pressure_sealevel;temperature;humidity
20009;BME280;10165;42.662;23.260;2023-09-19T00:02:21;94511.28;;;22.30;nan
20009;BME280;10165;42.662;23.260;2023-09-19T00:04:48;94508.81;;;22.09;nan
20009;BME280;10165;42.662;23.260;2023-09-19T00:07:16;94511.94;;;22.11;nan
20009;BME280;10165;42.662;23.260;2023-09-19T00:09:44;94520.53;;;21.69;nan
20009;BME280;10165;42.662;23.260;2023-09-19T00:12:10;94517.31;;;21.77;nan
20009;BME280;10165;42.662;23.260;2023-09-19T00:14:39;94514.09;;;21.89;nan
20009;BME280;10165;42.662;23.260;2023-09-19T00:17:06;94510.72;;;21.78;nan
20009;BME280;10165;42.662;23.260;2023-09-19T00:19:35;94510.13;;;21.98;nan
20009;BME280;10165;42.662;23.260;2023-09-19T00:22:02;94504.34;;;22.26;nan
20009;BME280;10165;42.662;23.260;2023-09-19T00:24:29;94503.47;;;22.02;nan
20009;BME280;10165;42.662;23.260;2023-09-19T00:26:57;94494.25;;;21.96;nan
20009;BME280;10165;42.662;23.260;2023-09-19T00:29:26;94494.06;;;22.10;nan
20009;BME280;10165;42.662;23.260;2023-09-19T00:31:56;94494.81;;;22.11;nan
20009;BME280;10165;42.662;23.260;2023-09-19T00:34:23;94485.56;;;22.05;nan
20009;BME280;10165;42.662;23.260;2023-09-19T00:36:51;94484.81;;;22.34;nan
20009;BME280;10165;42.662;23.260;2023-09-19T00:39:20;94480.19;;;22.28;nan
20009;BME280;10165;42.662;23.260;2023-09-19T00:41:48;94486.88;;;22.23;nan
20009;BME280;10165;42.662;23.260;2023-09-19T00:44:15;94490.53;;;21.76;nan
20009;BME280;10165;42.662;23.260;2023-09-19T00:46:42;94496.44;;;21.33;nan
20009;BME280;10165;42.662;23.260;2023-09-19T00:49:10;94497.25;;;21.30;nan
20009;BME280;10165;42.662;23.260;2023-09-19T00:51:37;94491.72;;;21.37;nan
20009;BME280;10165;42.662;23.260;2023-09-19T00:54:04;94495.34;;;21.24;nan
20009;BME280;10165;42.662;23.260;2023-09-19T00:56:31;94492.53;;;21.34;nan
20009;BME280;10165;42.662;23.260;2023-09-19T00:58:58;94485.56;;;21.33;nan
20009;BME280;10165;42.662;23.260;2023-09-19T01:01:25;94495.38;;;21.20;nan
20009;BME280;10165;42.662;23.260;2023-09-19T01:03:52;94489.06;;;21.34;nan
20009;BME280;10165;42.662;23.260;2023-09-19T01:06:20;94492.34;;;21.52;nan
20009;BME280;10165;42.662;23.260;2023-09-19T01:08:47;94482.88;;;21.30;nan
20009;BME280;10165;42.662;23.260;2023-09-19T01:11:20;94490.19;;;21.36;nan
20009;BME280;10165;42.662;23.260;2023-09-19T01:19:35;94497.19;;;21.34;nan
20009;BME280;10165;42.662;23.260;2023-09-19T01:22:13;94496.13;;;21.24;nan
20009;BME280;10165;42.662;23.260;2023-09-19T01:30:20;94497.75;;;21.56;nan
20009;BME280;10165;42.662;23.260;2023-09-19T01:32:52;94494.59;;;21.61;nan
20009;BME280;10165;42.662;23.260;2023-09-19T01:35:19;94497.25;;;21.68;nan
20009;BME280;10165;42.662;23.260;2023-09-19T01:37:45;94498.84;;;21.65;nan
20009;BME280;10165;42.662;23.260;2023-09-19T01:40:14;94493.88;;;21.57;nan
20009;BME280;10165;42.662;23.260;2023-09-19T01:47:52;94488.78;;;21.21;nan
20009;BME280;10165;42.662;23.260;2023-09-19T01:50:34;94496.03;;;21.31;nan
20009;BME280;10165;42.662;23.260;2023-09-19T01:53:15;94501.13;;;20.78;nan
20009;BME280;10165;42.662;23.260;2023-09-19T01:55:48;94496.06;;;20.18;nan
20009;BME280;10165;42.662;23.260;2023-09-19T01:58:20;94492.03;;;20.50;nan
20009;BME280;10165;42.662;23.260;2023-09-19T02:00:49;94490.25;;;20.78;nan
20009;BME280;10165;42.662;23.260;2023-09-19T02:03:20;94487.81;;;20.94;nan
20009;BME280;10165;42.662;23.260;2023-09-19T02:05:51;94495.94;;;20.46;nan
20009;BME280;10165;42.662;23.260;2023-09-19T02:08:21;94503.63;;;20.51;nan
20009;BME280;10165;42.662;23.260;2023-09-19T02:10:52;94490.53;;;20.94;nan
20009;BME280;10165;42.662;23.260;2023-09-19T02:13:20;94495.22;;;20.90;nan
20009;BME280;10165;42.662;23.260;2023-09-19T02:15:48;94497.50;;;20.95;nan
20009;BME280;10165;42.662;23.260;2023-09-19T02:18:15;94496.72;;;20.98;nan
20009;BME280;10165;42.662;23.260;2023-09-19T02:20:42;94495.91;;;21.01;nan
20009;BME280;10165;42.662;23.260;2023-09-19T02:23:10;94488.69;;;20.84;nan
20009;BME280;10165;42.662;23.260;2023-09-19T02:25:37;94485.34;;;21.14;nan
20009;BME280;10165;42.662;23.260;2023-09-19T02:28:05;94487.63;;;21.19;nan
20009;BME280;10165;42.662;23.260;2023-09-19T02:30:32;94486.13;;;21.14;nan
20009;BME280;10165;42.662;23.260;2023-09-19T02:33:00;94484.69;;;20.99;nan
20009;BME280;10165;42.662;23.260;2023-09-19T02:35:28;94486.09;;;20.66;nan
20009;BME280;10165;42.662;23.260;2023-09-19T02:37:59;94481.28;;;20.29;nan
20009;BME280;10165;42.662;23.260;2023-09-19T02:40:26;94476.63;;;20.26;nan
20009;BME280;10165;42.662;23.260;2023-09-19T02:42:55;94471.72;;;20.69;nan
20009;BME280;10165;42.662;23.260;2023-09-19T02:45:22;94467.69;;;20.88;nan
20009;BME280;10165;42.662;23.260;2023-09-19T02:47:50;94469.78;;;20.70;nan
20009;BME280;10165;42.662;23.260;2023-09-19T02:50:17;94462.91;;;21.03;nan
20009;BME280;10165;42.662;23.260;2023-09-19T02:52:45;94469.97;;;20.96;nan
20009;BME280;10165;42.662;23.260;2023-09-19T02:55:15;94463.16;;;20.71;nan
20009;BME280;10165;42.662;23.260;2023-09-19T02:57:47;94463.78;;;20.89;nan
20009;BME280;10165;42.662;23.260;2023-09-19T03:00:15;94462.69;;;20.83;nan
20009;BME280;10165;42.662;23.260;2023-09-19T03:02:43;94455.31;;;20.83;nan
20009;BME280;10165;42.662;23.260;2023-09-19T03:05:11;94449.72;;;21.01;nan
20009;BME280;10165;42.662;23.260;2023-09-19T03:07:38;94443.94;;;20.99;nan
20009;BME280;10165;42.662;23.260;2023-09-19T03:10:08;94440.50;;;20.91;nan
20009;BME280;10165;42.662;23.260;2023-09-19T03:12:35;94448.94;;;20.56;nan
20009;BME280;10165;42.662;23.260;2023-09-19T03:15:02;94451.03;;;20.34;nan
20009;BME280;10165;42.662;23.260;2023-09-19T03:17:31;94448.53;;;19.92;nan
20009;BME280;10165;42.662;23.260;2023-09-19T03:19:59;94453.97;;;19.92;nan
20009;BME280;10165;42.662;23.260;2023-09-19T03:22:29;94450.81;;;20.04;nan
20009;BME280;10165;42.662;23.260;2023-09-19T03:24:56;94457.38;;;20.03;nan
20009;BME280;10165;42.662;23.260;2023-09-19T03:27:22;94448.38;;;20.17;nan
20009;BME280;10165;42.662;23.260;2023-09-19T03:29:49;94449.13;;;20.31;nan
20009;BME280;10165;42.662;23.260;2023-09-19T03:32:16;94441.97;;;20.51;nan
20009;BME280;10165;42.662;23.260;2023-09-19T03:34:43;94461.69;;;20.59;nan
20009;BME280;10165;42.662;23.260;2023-09-19T03:37:10;94453.97;;;20.58;nan
20009;BME280;10165;42.662;23.260;2023-09-19T03:39:37;94458.66;;;20.54;nan
20009;BME280;10165;42.662;23.260;2023-09-19T03:42:04;94461.69;;;20.63;nan
20009;BME280;10165;42.662;23.260;2023-09-19T03:44:31;94464.84;;;20.58;nan
20009;BME280;10165;42.662;23.260;2023-09-19T03:46:58;94469.47;;;20.61;nan
20009;BME280;10165;42.662;23.260;2023-09-19T03:49:25;94468.31;;;20.58;nan
20009;BME280;10165;42.662;23.260;2023-09-19T03:51:51;94462.47;;;20.60;nan
20009;BME280;10165;42.662;23.260;2023-09-19T03:54:18;94469.88;;;20.56;nan
20009;BME280;10165;42.662;23.260;2023-09-19T03:56:45;94463.06;;;20.81;nan
20009;BME280;10165;42.662;23.260;2023-09-19T03:59:12;94471.31;;;20.71;nan
20009;BME280;10165;42.662;23.260;2023-09-19T04:01:40;94467.56;;;20.54;nan
20009;BME280;10165;42.662;23.260;2023-09-19T04:04:07;94467.88;;;20.63;nan
20009;BME280;10165;42.662;23.260;2023-09-19T04:06:35;94471.56;;;20.35;nan
20009;BME280;10165;42.662;23.260;2023-09-19T04:09:04;94481.91;;;19.75;nan
20009;BME280;10165;42.662;23.260;2023-09-19T04:11:33;94500.22;;;19.07;nan
20009;BME280;10165;42.662;23.260;2023-09-19T04:14:03;94494.81;;;19.07;nan
20009;BME280;10165;42.662;23.260;2023-09-19T04:16:31;94497.84;;;19.37;nan
20009;BME280;10165;42.662;23.260;2023-09-19T04:18:57;94490.91;;;19.50;nan
20009;BME280;10165;42.662;23.260;2023-09-19T04:21:24;94487.75;;;19.66;nan
20009;BME280;10165;42.662;23.260;2023-09-19T04:23:51;94482.59;;;20.00;nan
20009;BME280;10165;42.662;23.260;2023-09-19T04:26:18;94475.94;;;20.15;nan
20009;BME280;10165;42.662;23.260;2023-09-19T04:28:45;94474.25;;;20.42;nan
20009;BME280;10165;42.662;23.260;2023-09-19T04:31:12;94470.56;;;20.67;nan
20009;BME280;10165;42.662;23.260;2023-09-19T04:33:41;94474.66;;;20.89;nan
20009;BME280;10165;42.662;23.260;2023-09-19T04:36:11;94471.94;;;20.89;nan
20009;BME280;10165;42.662;23.260;2023-09-19T04:39:00;94470.34;;;20.95;nan
20009;BME280;10165;42.662;23.260;2023-09-19T04:41:32;94459.03;;;21.04;nan
20009;BME280;10165;42.662;23.260;2023-09-19T04:44:00;94465.34;;;20.90;nan
20009;BME280;10165;42.662;23.260;2023-09-19T04:46:27;94470.56;;;20.67;nan
20009;BME280;10165;42.662;23.260;2023-09-19T04:48:54;94465.06;;;20.74;nan
20009;BME280;10165;42.662;23.260;2023-09-19T04:51:21;94465.88;;;20.71;nan
20009;BME280;10165;42.662;23.260;2023-09-19T04:53:48;94460.09;;;20.69;nan
20009;BME280;10165;42.662;23.260;2023-09-19T04:56:15;94461.66;;;20.70;nan
20009;BME280;10165;42.662;23.260;2023-09-19T04:58:42;94460.88;;;20.69;nan
20009;BME280;10165;42.662;23.260;2023-09-19T05:01:09;94466.88;;;20.39;nan
20009;BME280;10165;42.662;23.260;2023-09-19T05:03:38;94456.19;;;20.11;nan
20009;BME280;10165;42.662;23.260;2023-09-19T05:06:05;94453.31;;;20.39;nan
20009;BME280;10165;42.662;23.260;2023-09-19T05:08:31;94457.41;;;20.65;nan
20009;BME280;10165;42.662;23.260;2023-09-19T05:11:01;94462.38;;;20.74;nan
20009;BME280;10165;42.662;23.260;2023-09-19T05:13:28;94461.06;;;20.89;nan
20009;BME280;10165;42.662;23.260;2023-09-19T05:16:00;94460.72;;;20.87;nan
20009;BME280;10165;42.662;23.260;2023-09-19T05:18:28;94461.28;;;21.12;nan
20009;BME280;10165;42.662;23.260;2023-09-19T05:20:54;94459.59;;;21.29;nan
20009;BME280;10165;42.662;23.260;2023-09-19T05:23:22;94456.09;;;21.28;nan
20009;BME280;10165;42.662;23.260;2023-09-19T05:25:49;94452.13;;;21.36;nan
20009;BME280;10165;42.662;23.260;2023-09-19T05:28:16;94451.75;;;21.38;nan
20009;BME280;10165;42.662;23.260;2023-09-19T05:30:42;94451.41;;;21.32;nan
20009;BME280;10165;42.662;23.260;2023-09-19T05:33:14;94449.84;;;20.87;nan
20009;BME280;10165;42.662;23.260;2023-09-19T05:35:41;94450.31;;;21.26;nan
20009;BME280;10165;42.662;23.260;2023-09-19T05:38:08;94445.38;;;21.14;nan
20009;BME280;10165;42.662;23.260;2023-09-19T05:40:40;94442.34;;;21.46;nan
20009;BME280;10165;42.662;23.260;2023-09-19T05:43:12;94449.47;;;21.67;nan
20009;BME280;10165;42.662;23.260;2023-09-19T05:45:41;94444.06;;;21.63;nan
20009;BME280;10165;42.662;23.260;2023-09-19T05:48:12;94442.47;;;21.66;nan
20009;BME280;10165;42.662;23.260;2023-09-19T05:50:40;94441.78;;;21.58;nan
20009;BME280;10165;42.662;23.260;2023-09-19T05:53:07;94440.63;;;21.89;nan
20009;BME280;10165;42.662;23.260;2023-09-19T05:55:34;94445.97;;;21.66;nan
20009;BME280;10165;42.662;23.260;2023-09-19T05:58:02;94444.53;;;21.92;nan
20009;BME280;10165;42.662;23.260;2023-09-19T06:00:30;94443.97;;;21.70;nan
20009;BME280;10165;42.662;23.260;2023-09-19T06:02:59;94434.00;;;21.60;nan
20009;BME280;10165;42.662;23.260;2023-09-19T06:05:27;94434.06;;;21.57;nan
20009;BME280;10165;42.662;23.260;2023-09-19T06:07:54;94436.66;;;21.67;nan
20009;BME280;10165;42.662;23.260;2023-09-19T06:10:21;94432.88;;;21.58;nan
20009;BME280;10165;42.662;23.260;2023-09-19T06:12:50;94434.44;;;21.55;nan
20009;BME280;10165;42.662;23.260;2023-09-19T06:15:17;94432.84;;;21.95;nan
20009;BME280;10165;42.662;23.260;2023-09-19T06:17:51;94433.31;;;22.17;nan
20009;BME280;10165;42.662;23.260;2023-09-19T06:20:18;94428.25;;;22.19;nan
20009;BME280;10165;42.662;23.260;2023-09-19T06:22:46;94428.72;;;22.40;nan
20009;BME280;10165;42.662;23.260;2023-09-19T06:25:14;94423.72;;;22.35;nan
20009;BME280;10165;42.662;23.260;2023-09-19T06:27:50;94415.56;;;22.35;nan
20009;BME280;10165;42.662;23.260;2023-09-19T06:30:21;94419.97;;;22.53;nan
20009;BME280;10165;42.662;23.260;2023-09-19T06:32:55;94423.66;;;22.39;nan
20009;BME280;10165;42.662;23.260;2023-09-19T06:35:22;94420.13;;;22.42;nan
20009;BME280;10165;42.662;23.260;2023-09-19T06:37:49;94431.72;;;22.46;nan
20009;BME280;10165;42.662;23.260;2023-09-19T06:40:18;94421.31;;;22.41;nan
20009;BME280;10165;42.662;23.260;2023-09-19T06:42:47;94430.81;;;22.56;nan
20009;BME280;10165;42.662;23.260;2023-09-19T06:45:16;94428.84;;;23.07;nan
20009;BME280;10165;42.662;23.260;2023-09-19T06:47:47;94431.72;;;23.19;nan
20009;BME280;10165;42.662;23.260;2023-09-19T06:50:18;94437.47;;;22.25;nan
20009;BME280;10165;42.662;23.260;2023-09-19T06:52:46;94433.72;;;22.96;nan
20009;BME280;10165;42.662;23.260;2023-09-19T06:55:19;94431.69;;;23.00;nan
20009;BME280;10165;42.662;23.260;2023-09-19T06:57:47;94443.25;;;22.00;nan
20009;BME280;10165;42.662;23.260;2023-09-19T07:00:15;94438.72;;;22.20;nan
20009;BME280;10165;42.662;23.260;2023-09-19T07:02:42;94446.88;;;22.47;nan
20009;BME280;10165;42.662;23.260;2023-09-19T07:05:09;94440.81;;;22.09;nan
20009;BME280;10165;42.662;23.260;2023-09-19T07:07:36;94440.28;;;22.98;nan
20009;BME280;10165;42.662;23.260;2023-09-19T07:10:03;94440.84;;;22.86;nan
20009;BME280;10165;42.662;23.260;2023-09-19T07:12:34;94440.19;;;22.78;nan
20009;BME280;10165;42.662;23.260;2023-09-19T07:15:01;94433.41;;;22.63;nan
20009;BME280;10165;42.662;23.260;2023-09-19T07:17:27;94447.34;;;23.15;nan
20009;BME280;10165;42.662;23.260;2023-09-19T07:19:56;94440.81;;;22.36;nan
20009;BME280;10165;42.662;23.260;2023-09-19T07:22:26;94445.03;;;23.37;nan
20009;BME280;10165;42.662;23.260;2023-09-19T07:24:53;94440.81;;;23.56;nan
20009;BME280;10165;42.662;23.260;2023-09-19T07:27:20;94439.59;;;23.37;nan
20009;BME280;10165;42.662;23.260;2023-09-19T07:29:47;94451.44;;;23.70;nan
20009;BME280;10165;42.662;23.260;2023-09-19T07:32:16;94436.06;;;23.99;nan
20009;BME280;10165;42.662;23.260;2023-09-19T07:34:43;94446.63;;;23.58;nan
20009;BME280;10165;42.662;23.260;2023-09-19T07:37:11;94439.56;;;23.60;nan
20009;BME280;10165;42.662;23.260;2023-09-19T07:39:39;94444.59;;;23.62;nan
20009;BME280;10165;42.662;23.260;2023-09-19T07:42:07;94448.63;;;23.54;nan
20009;BME280;10165;42.662;23.260;2023-09-19T07:44:37;94438.81;;;23.79;nan
20009;BME280;10165;42.662;23.260;2023-09-19T07:47:04;94442.16;;;23.87;nan
20009;BME280;10165;42.662;23.260;2023-09-19T07:49:31;94427.16;;;24.15;nan
20009;BME280;10165;42.662;23.260;2023-09-19T07:51:58;94441.16;;;24.17;nan
20009;BME280;10165;42.662;23.260;2023-09-19T07:54:25;94445.63;;;24.07;nan
20009;BME280;10165;42.662;23.260;2023-09-19T07:56:53;94445.03;;;24.36;nan
20009;BME280;10165;42.662;23.260;2023-09-19T07:59:20;94449.69;;;24.19;nan
20009;BME280;10165;42.662;23.260;2023-09-19T08:01:47;94449.47;;;23.51;nan
20009;BME280;10165;42.662;23.260;2023-09-19T08:04:14;94449.41;;;23.74;nan
20009;BME280;10165;42.662;23.260;2023-09-19T08:06:41;94433.91;;;23.91;nan
20009;BME280;10165;42.662;23.260;2023-09-19T08:09:08;94426.81;;;23.93;nan
20009;BME280;10165;42.662;23.260;2023-09-19T08:11:37;94426.88;;;23.50;nan
20009;BME280;10165;42.662;23.260;2023-09-19T08:14:04;94426.25;;;24.02;nan
20009;BME280;10165;42.662;23.260;2023-09-19T08:16:32;94422.06;;;23.97;nan
20009;BME280;10165;42.662;23.260;2023-09-19T08:18:59;94418.16;;;24.18;nan
20009;BME280;10165;42.662;23.260;2023-09-19T08:21:26;94418.56;;;24.16;nan
20009;BME280;10165;42.662;23.260;2023-09-19T08:23:56;94416.41;;;23.06;nan
20009;BME280;10165;42.662;23.260;2023-09-19T08:26:23;94415.59;;;23.28;nan
20009;BME280;10165;42.662;23.260;2023-09-19T08:28:51;94412.75;;;23.95;nan
20009;BME280;10165;42.662;23.260;2023-09-19T08:31:18;94420.66;;;23.89;nan
20009;BME280;10165;42.662;23.260;2023-09-19T08:33:44;94418.84;;;24.02;nan
20009;BME280;10165;42.662;23.260;2023-09-19T08:36:15;94421.53;;;24.74;nan
20009;BME280;10165;42.662;23.260;2023-09-19T08:38:42;94428.22;;;24.89;nan
20009;BME280;10165;42.662;23.260;2023-09-19T08:41:09;94419.81;;;24.64;nan
20009;BME280;10165;42.662;23.260;2023-09-19T08:43:36;94425.59;;;24.50;nan
20009;BME280;10165;42.662;23.260;2023-09-19T08:46:15;94411.41;;;24.91;nan
20009;BME280;10165;42.662;23.260;2023-09-19T08:48:46;94413.16;;;24.49;nan
20009;BME280;10165;42.662;23.260;2023-09-19T08:54:08;94413.69;;;23.49;nan
20009;BME280;10165;42.662;23.260;2023-09-19T08:56:36;94402.66;;;24.63;nan
20009;BME280;10165;42.662;23.260;2023-09-19T08:59:06;94404.78;;;24.40;nan
20009;BME280;10165;42.662;23.260;2023-09-19T09:01:38;94403.84;;;24.79;nan
20009;BME280;10165;42.662;23.260;2023-09-19T09:04:08;94402.53;;;25.15;nan
20009;BME280;10165;42.662;23.260;2023-09-19T09:06:41;94417.00;;;25.16;nan
20009;BME280;10165;42.662;23.260;2023-09-19T09:09:10;94397.63;;;25.10;nan
20009;BME280;10165;42.662;23.260;2023-09-19T09:11:38;94401.53;;;24.77;nan
20009;BME280;10165;42.662;23.260;2023-09-19T09:14:06;94404.13;;;24.84;nan
20009;BME280;10165;42.662;23.260;2023-09-19T09:16:34;94399.31;;;25.04;nan
20009;BME280;10165;42.662;23.260;2023-09-19T09:19:01;94394.22;;;24.90;nan
20009;BME280;10165;42.662;23.260;2023-09-19T09:21:28;94389.53;;;24.91;nan
20009;BME280;10165;42.662;23.260;2023-09-19T09:23:54;94384.03;;;25.52;nan
20009;BME280;10165;42.662;23.260;2023-09-19T09:29:03;94382.66;;;25.44;nan
20009;BME280;10165;42.662;23.260;2023-09-19T09:31:30;94385.50;;;25.40;nan
20009;BME280;10165;42.662;23.260;2023-09-19T09:33:58;94377.69;;;25.55;nan
20009;BME280;10165;42.662;23.260;2023-09-19T09:36:38;94368.75;;;25.67;nan
20009;BME280;10165;42.662;23.260;2023-09-19T09:39:07;94369.09;;;25.40;nan
20009;BME280;10165;42.662;23.260;2023-09-19T09:41:44;94362.44;;;24.96;nan
20009;BME280;10165;42.662;23.260;2023-09-19T09:44:18;94352.78;;;24.92;nan
20009;BME280;10165;42.662;23.260;2023-09-19T09:46:47;94357.47;;;23.55;nan
20009;BME280;10165;42.662;23.260;2023-09-19T09:49:24;94350.03;;;24.92;nan
20009;BME280;10165;42.662;23.260;2023-09-19T09:52:04;94354.63;;;25.40;nan
20009;BME280;10165;42.662;23.260;2023-09-19T09:55:04;94354.19;;;25.70;nan
20009;BME280;10165;42.662;23.260;2023-09-19T09:57:34;94356.91;;;26.24;nan
20009;BME280;10165;42.662;23.260;2023-09-19T10:00:03;94348.75;;;25.95;nan
20009;BME280;10165;42.662;23.260;2023-09-19T10:02:36;94360.84;;;26.36;nan
20009;BME280;10165;42.662;23.260;2023-09-19T10:05:14;94347.66;;;26.69;nan
20009;BME280;10165;42.662;23.260;2023-09-19T10:08:10;94351.28;;;26.66;nan
20009;BME280;10165;42.662;23.260;2023-09-19T10:10:39;94343.72;;;26.57;nan
20009;BME280;10165;42.662;23.260;2023-09-19T10:13:11;94344.31;;;26.52;nan
20009;BME280;10165;42.662;23.260;2023-09-19T10:15:48;94338.53;;;26.84;nan
20009;BME280;10165;42.662;23.260;2023-09-19T10:18:23;94346.84;;;26.21;nan
20009;BME280;10165;42.662;23.260;2023-09-19T10:20:51;94347.03;;;26.52;nan
20009;BME280;10165;42.662;23.260;2023-09-19T10:23:20;94347.03;;;26.52;nan
20009;BME280;10165;42.662;23.260;2023-09-19T10:25:50;94346.19;;;27.02;nan
20009;BME280;10165;42.662;23.260;2023-09-19T10:28:20;94348.19;;;26.76;nan
20009;BME280;10165;42.662;23.260;2023-09-19T10:30:50;94343.69;;;26.82;nan
20009;BME280;10165;42.662;23.260;2023-09-19T10:33:21;94344.69;;;26.88;nan
20009;BME280;10165;42.662;23.260;2023-09-19T10:35:50;94337.69;;;26.62;nan
20009;BME280;10165;42.662;23.260;2023-09-19T10:38:23;94343.47;;;26.89;nan
20009;BME280;10165;42.662;23.260;2023-09-19T10:40:54;94344.47;;;26.70;nan
20009;BME280;10165;42.662;23.260;2023-09-19T10:43:27;94337.81;;;26.46;nan
20009;BME280;10165;42.662;23.260;2023-09-19T10:46:11;94327.97;;;26.36;nan
20009;BME280;10165;42.662;23.260;2023-09-19T10:48:40;94322.44;;;26.74;nan
20009;BME280;10165;42.662;23.260;2023-09-19T10:51:13;94320.66;;;26.33;nan
20009;BME280;10165;42.662;23.260;2023-09-19T10:56:29;94318.50;;;26.75;nan
20009;BME280;10165;42.662;23.260;2023-09-19T10:59:09;94321.78;;;26.70;nan
20009;BME280;10165;42.662;23.260;2023-09-19T11:01:56;94319.84;;;26.57;nan
20009;BME280;10165;42.662;23.260;2023-09-19T11:04:32;94319.00;;;26.10;nan
20009;BME280;10165;42.662;23.260;2023-09-19T11:07:08;94320.16;;;27.06;nan
20009;BME280;10165;42.662;23.260;2023-09-19T11:09:51;94312.47;;;27.36;nan
20009;BME280;10165;42.662;23.260;2023-09-19T11:26:51;94308.31;;;27.31;nan
20009;BME280;10165;42.662;23.260;2023-09-19T11:29:35;94297.19;;;27.47;nan
20009;BME280;10165;42.662;23.260;2023-09-19T11:32:02;94292.38;;;27.61;nan
20009;BME280;10165;42.662;23.260;2023-09-19T11:40:09;94282.16;;;27.39;nan
20009;BME280;10165;42.662;23.260;2023-09-19T11:42:47;94276.34;;;26.81;nan
20009;BME280;10165;42.662;23.260;2023-09-19T11:48:07;94267.22;;;26.97;nan
20009;BME280;10165;42.662;23.260;2023-09-19T11:50:35;94262.25;;;27.04;nan
20009;BME280;10165;42.662;23.260;2023-09-19T11:53:03;94254.53;;;27.34;nan
20009;BME280;10165;42.662;23.260;2023-09-19T11:55:31;94262.94;;;27.92;nan
20009;BME280;10165;42.662;23.260;2023-09-19T11:57:59;94270.44;;;28.00;nan
20009;BME280;10165;42.662;23.260;2023-09-19T12:00:26;94254.34;;;27.50;nan
20009;BME280;10165;42.662;23.260;2023-09-19T12:02:55;94259.75;;;27.41;nan
20009;BME280;10165;42.662;23.260;2023-09-19T12:05:29;94254.84;;;27.14;nan
20009;BME280;10165;42.662;23.260;2023-09-19T12:07:55;94244.72;;;27.24;nan
20009;BME280;10165;42.662;23.260;2023-09-19T12:10:22;94238.25;;;27.18;nan
20009;BME280;10165;42.662;23.260;2023-09-19T12:12:50;94243.25;;;26.88;nan
20009;BME280;10165;42.662;23.260;2023-09-19T12:15:28;94240.91;;;25.80;nan
20009;BME280;10165;42.662;23.260;2023-09-19T12:18:00;94230.56;;;27.03;nan
20009;BME280;10165;42.662;23.260;2023-09-19T12:20:45;94232.91;;;27.14;nan
20009;BME280;10165;42.662;23.260;2023-09-19T12:23:17;94223.19;;;27.44;nan
20009;BME280;10165;42.662;23.260;2023-09-19T12:25:45;94213.81;;;27.54;nan
20009;BME280;10165;42.662;23.260;2023-09-19T12:28:14;94205.97;;;27.74;nan
20009;BME280;10165;42.662;23.260;2023-09-19T12:30:43;94215.03;;;27.31;nan
20009;BME280;10165;42.662;23.260;2023-09-19T12:33:20;94207.22;;;27.21;nan
20009;BME280;10165;42.662;23.260;2023-09-19T12:35:51;94213.09;;;26.88;nan
20009;BME280;10165;42.662;23.260;2023-09-19T12:38:24;94214.09;;;26.82;nan
20009;BME280;10165;42.662;23.260;2023-09-19T12:40:52;94211.03;;;26.45;nan
20009;BME280;10165;42.662;23.260;2023-09-19T12:43:19;94217.50;;;26.73;nan
20009;BME280;10165;42.662;23.260;2023-09-19T12:45:46;94208.50;;;26.85;nan
20009;BME280;10165;42.662;23.260;2023-09-19T12:48:23;94208.91;;;27.27;nan
20009;BME280;10165;42.662;23.260;2023-09-19T12:51:07;94207.13;;;27.64;nan
20009;BME280;10165;42.662;23.260;2023-09-19T12:53:40;94210.47;;;27.28;nan
20009;BME280;10165;42.662;23.260;2023-09-19T12:56:13;94205.78;;;27.38;nan
20009;BME280;10165;42.662;23.260;2023-09-19T12:58:53;94206.25;;;27.67;nan
20009;BME280;10165;42.662;23.260;2023-09-19T13:01:24;94195.00;;;27.43;nan
20009;BME280;10165;42.662;23.260;2023-09-19T13:04:30;94186.84;;;27.62;nan
20009;BME280;10165;42.662;23.260;2023-09-19T13:07:00;94186.63;;;27.78;nan
20009;BME280;10165;42.662;23.260;2023-09-19T13:09:28;94183.31;;;27.52;nan
20009;BME280;10165;42.662;23.260;2023-09-19T13:12:01;94183.94;;;27.56;nan
20009;BME280;10165;42.662;23.260;2023-09-19T13:14:29;94188.97;;;26.83;nan
20009;BME280;10165;42.662;23.260;2023-09-19T13:17:05;94179.34;;;27.53;nan
20009;BME280;10165;42.662;23.260;2023-09-19T13:25:03;94168.88;;;28.19;nan
20009;BME280;10165;42.662;23.260;2023-09-19T13:27:30;94163.00;;;27.98;nan
20009;BME280;10165;42.662;23.260;2023-09-19T13:29:58;94156.75;;;27.49;nan
20009;BME280;10165;42.662;23.260;2023-09-19T13:32:25;94160.09;;;27.13;nan
20009;BME280;10165;42.662;23.260;2023-09-19T13:34:52;94155.69;;;27.95;nan
20009;BME280;10165;42.662;23.260;2023-09-19T13:37:19;94161.38;;;28.10;nan
20009;BME280;10165;42.662;23.260;2023-09-19T13:39:46;94163.69;;;28.12;nan
20009;BME280;10165;42.662;23.260;2023-09-19T13:42:14;94160.06;;;28.51;nan
20009;BME280;10165;42.662;23.260;2023-09-19T13:44:42;94159.16;;;28.54;nan
20009;BME280;10165;42.662;23.260;2023-09-19T13:47:10;94152.75;;;28.66;nan
20009;BME280;10165;42.662;23.260;2023-09-19T13:49:39;94156.41;;;28.63;nan
20009;BME280;10165;42.662;23.260;2023-09-19T13:52:06;94150.59;;;28.61;nan
20009;BME280;10165;42.662;23.260;2023-09-19T13:54:33;94153.94;;;28.65;nan
20009;BME280;10165;42.662;23.260;2023-09-19T13:57:00;94153.03;;;28.41;nan
20009;BME280;10165;42.662;23.260;2023-09-19T13:59:27;94151.50;;;28.13;nan
20009;BME280;10165;42.662;23.260;2023-09-19T14:01:55;94147.22;;;28.48;nan
20009;BME280;10165;42.662;23.260;2023-09-19T14:04:22;94153.81;;;28.69;nan
20009;BME280;10165;42.662;23.260;2023-09-19T14:06:49;94152.25;;;28.68;nan
20009;BME280;10165;42.662;23.260;2023-09-19T14:09:15;94148.31;;;28.78;nan
20009;BME280;10165;42.662;23.260;2023-09-19T14:11:45;94159.75;;;28.49;nan
20009;BME280;10165;42.662;23.260;2023-09-19T14:14:14;94154.41;;;28.45;nan
20009;BME280;10165;42.662;23.260;2023-09-19T14:16:41;94144.78;;;28.86;nan